Etusivu
METAR-TAF:

METAR-TAF

Lentoasemat :

Asunción, Paraguay

Leveyspiiri: 25-16S, Pituuspiiri: 057-38W, korkeus merenpinnasta: 101 m

Tämänhetkinen sää

Tämä raportti tehtiin 49 minuuttia sitten, kello 01.00 UTC
Tuuli 3 kn eri suunnista
Lämpötila 26°C
Kosteus 74%
Ilmanpaine 1015 hPa
Näkyvyys 10 km tai enemmän
Muutamia pilviä 1000 ft:n korkeudessa

METAR: SGAS 200100Z VRB03KT 9999 FEW010 26/21 Q1015

Aika: 21:49 (01:49 UTC)

Sääennuste

Tämä raportti tehtiin 3 tuntia ja 34 minuuttia sitten, kello 22.15 UTC
Ennuste voimassa 20. päivästä klo 00 UTC - 21. päivään klo 00 UTC
Tuuli 3 kn idästä/koillisesta
Näkyvyys 10 km tai enemmän
ei pilviä alle 1500 m:ssä eikä cumulonimbus-pilviä
Tulossa
20. päivästä klo 10 UTC - 20. päivään klo 12 UTC
Tuuli 8 kn pohjoisesta
Näkyvyys 10 km tai enemmän
Hajanaisia pilviä 3000 ft:n korkeudessa

TAF: SGAS 192215Z 2000/2100 07003KT CAVOK TX33/2019Z TN22/2009Z BECMG 2010/2012 01008KT 9999 SCT030

Säähavainnot ja -ennusteet yli 4000 lentoasemalta (METAR- ja TAF-raportit).

Käytössä olevat sääasemat on merkitty karttaan keltaisilla ja punaisilla pisteillä.

Aseta hiiri pisteen päälle nähdäksesi sääaseman nimen.

Klikkaa sitten nähdäksesi säähavainnot ja -ennusteet.

Kartan vaihtaminen: klikkaa mustalla rastilla varustettuja vihreitä pisteitä, niin voit zoomata sisään; viivalla varustettua vihreää pistettä, niin voit zoomata ulos tai vihreitä nuolia, niin pääset viereisille kartoille.


METAR-TAF: